Time;durP1;ratioP1;P1;durP2;ratioP2;P2;SDS_P1;SDS_P2;PMS_P1;PMS_P2;Temp;Humidity;BMP_temperature;BMP_pressure;BME280_temperature;BME280_humidity;BME280_pressure;Samples;Min_cycle;Max_cycle;Signal;HPM_P1;HPM_P2
2021/09/18 00:01:31;;;;;;;11.93;5.87;;;;;;;20.46;67.41;99480.95;1699674;83;21075;-60
2021/09/18 00:03:57;;;;;;;12.10;6.12;;;;;;;20.49;67.49;99476.52;1673639;83;21278;-60
2021/09/18 00:06:24;;;;;;;9.68;6.55;;;;;;;20.50;67.48;99474.98;1696050;83;21521;-60
2021/09/18 00:08:52;;;;;;;11.15;6.20;;;;;;;20.47;67.63;99479.41;1695703;83;21000;-60
2021/09/18 00:11:20;;;;;;;12.65;6.22;;;;;;;20.43;67.74;99476.86;1699369;83;21087;-60
2021/09/18 00:13:47;;;;;;;16.35;6.60;;;;;;;20.38;67.88;99473.99;1684524;83;21020;-60
2021/09/18 00:16:15;;;;;;;10.05;6.37;;;;;;;20.36;67.96;99472.05;1692485;83;21628;-60
2021/09/18 00:18:41;;;;;;;11.50;6.50;;;;;;;20.39;67.96;99471.61;1697793;83;21105;-60
2021/09/18 00:21:10;;;;;;;8.55;5.80;;;;;;;20.40;68.03;99464.73;1694358;83;21047;-60
2021/09/18 00:23:36;;;;;;;12.82;6.83;;;;;;;20.43;68.11;99466.17;1671973;84;21086;-59
2021/09/18 00:26:04;;;;;;;10.35;6.20;;;;;;;20.46;68.08;99463.08;1666013;83;21621;-61
2021/09/18 00:28:31;;;;;;;10.68;7.08;;;;;;;20.44;68.15;99465.64;1670377;83;21857;-60
2021/09/18 00:30:57;;;;;;;11.70;7.08;;;;;;;20.41;68.20;99458.89;1662571;83;21023;-60
2021/09/18 00:33:25;;;;;;;12.05;7.10;;;;;;;20.39;68.29;99462.26;1691841;83;21095;-59
2021/09/18 00:35:52;;;;;;;12.23;6.35;;;;;;;20.40;68.16;99455.89;1695328;83;21105;-60
2021/09/18 00:38:19;;;;;;;10.30;6.80;;;;;;;20.42;68.10;99455.16;1694611;82;21593;-60
2021/09/18 00:40:48;;;;;;;10.13;7.22;;;;;;;20.44;68.27;99454.44;1696771;83;21560;-61
2021/09/18 00:43:15;;;;;;;14.30;7.10;;;;;;;20.45;68.29;99452.60;1698444;83;21119;-60
2021/09/18 00:45:43;;;;;;;9.70;6.15;;;;;;;20.45;68.38;99448.59;1694626;83;21097;-59
2021/09/18 00:48:11;;;;;;;11.57;6.70;;;;;;;20.44;68.38;99446.42;1694695;82;21497;-60
2021/09/18 00:50:39;;;;;;;12.05;6.75;;;;;;;20.42;68.46;99449.82;1699879;82;21121;-60
2021/09/18 00:53:05;;;;;;;10.00;6.17;;;;;;;20.44;68.44;99441.07;1697499;82;21791;-61
2021/09/18 00:55:32;;;;;;;9.38;6.10;;;;;;;20.47;68.41;99442.00;1672946;83;21141;-61
2021/09/18 00:57:58;;;;;;;11.65;6.37;;;;;;;20.51;68.35;99438.38;1676245;83;21012;-60
2021/09/18 01:00:27;;;;;;;9.43;6.22;;;;;;;20.50;68.32;99434.09;1693844;83;21688;-60
2021/09/18 01:02:53;;;;;;;10.40;7.05;;;;;;;20.50;68.50;99430.89;1701212;82;21028;-60
2021/09/18 01:05:20;;;;;;;9.98;6.65;;;;;;;20.50;68.41;99427.41;1676962;83;21059;-61
2021/09/18 01:07:48;;;;;;;11.12;7.55;;;;;;;20.48;68.43;99425.47;1696619;82;21055;-60
2021/09/18 01:10:14;;;;;;;10.85;7.03;;;;;;;20.46;68.57;99421.67;1674890;83;22283;-60
2021/09/18 01:13:04;;;;;;;8.83;6.40;;;;;;;20.49;68.54;99416.41;1697237;82;21051;-60
2021/09/18 01:15:34;;;;;;;11.03;7.90;;;;;;;20.51;68.39;99412.50;1699683;82;21080;-60
2021/09/18 01:18:01;;;;;;;10.48;7.12;;;;;;;20.51;68.48;99411.16;1686812;83;21196;-60
2021/09/18 01:20:29;;;;;;;10.28;7.58;;;;;;;20.52;68.56;99412.78;1690025;83;21509;-60
2021/09/18 01:22:57;;;;;;;12.82;7.15;;;;;;;20.52;68.58;99408.78;1692958;83;21143;-60
2021/09/18 01:25:29;;;;;;;9.88;7.28;;;;;;;20.48;68.59;99410.25;1706468;82;21575;-60
2021/09/18 01:27:56;;;;;;;9.10;7.10;;;;;;;20.44;68.71;99406.34;1702638;82;21051;-60
2021/09/18 01:30:24;;;;;;;13.50;7.17;;;;;;;20.43;68.77;99403.38;1708376;82;21492;-60
2021/09/18 01:32:52;;;;;;;10.23;6.78;;;;;;;20.45;68.81;99398.64;1703904;82;21512;-59
2021/09/18 01:35:19;;;;;;;11.30;7.45;;;;;;;20.46;68.82;99396.78;1708485;82;21509;-60
2021/09/18 01:37:48;;;;;;;9.78;7.75;;;;;;;20.48;68.80;99393.41;1709757;82;21575;-59
2021/09/18 01:40:21;;;;;;;13.68;8.35;;;;;;;20.48;68.92;99392.88;1740372;80;21528;-61
2021/09/18 01:42:48;;;;;;;11.63;8.25;;;;;;;20.47;68.95;99384.55;1700262;82;21214;-60
2021/09/18 01:45:15;;;;;;;12.70;7.90;;;;;;;20.49;68.93;99386.48;1692225;83;21509;-60
2021/09/18 01:47:48;;;;;;;11.95;7.33;;;;;;;20.47;68.99;99387.22;1669050;84;21075;-60
2021/09/18 01:50:25;;;;;;;13.98;8.45;;;;;;;20.48;69.01;99391.54;1685957;83;21029;-60
2021/09/18 01:52:55;;;;;;;11.68;7.75;;;;;;;20.53;68.89;99383.70;1683470;83;21073;-60
2021/09/18 01:55:22;;;;;;;12.75;8.00;;;;;;;20.57;68.78;99382.23;1687254;83;21621;-60
2021/09/18 01:57:51;;;;;;;11.73;8.40;;;;;;;20.61;68.78;99381.32;1699430;82;21344;-60
2021/09/18 02:00:19;;;;;;;14.10;7.95;;;;;;;20.64;68.70;99376.08;1694540;82;21067;-60
2021/09/18 02:02:46;;;;;;;11.53;8.25;;;;;;;20.62;68.70;99373.59;1696398;82;21516;-60
2021/09/18 02:05:14;;;;;;;14.78;8.78;;;;;;;20.62;68.78;99374.11;1695404;82;21149;-60
2021/09/18 02:07:41;;;;;;;10.93;7.85;;;;;;;20.60;68.77;99371.66;1700041;83;22452;-60
2021/09/18 02:10:10;;;;;;;12.55;7.75;;;;;;;20.62;68.66;99363.42;1667330;82;21119;-60
2021/09/18 02:12:37;;;;;;;15.20;8.35;;;;;;;20.66;68.55;99356.63;1702850;82;22341;-60
2021/09/18 02:15:06;;;;;;;10.18;6.92;;;;;;;20.69;68.50;99360.22;1700368;82;21003;-60
2021/09/18 02:17:33;;;;;;;11.50;7.87;;;;;;;20.70;68.43;99354.66;1673672;82;21075;-60
2021/09/18 02:20:00;;;;;;;13.25;8.60;;;;;;;20.70;68.44;99358.67;1696923;82;21844;-61
2021/09/18 02:22:26;;;;;;;12.03;8.13;;;;;;;20.69;68.57;99362.89;1668919;82;21822;-60
2021/09/18 02:24:54;;;;;;;15.20;9.10;;;;;;;20.70;68.62;99353.86;1702216;82;21126;-61
2021/09/18 02:27:20;;;;;;;11.60;7.67;;;;;;;20.66;68.48;99346.78;1693685;83;21120;-61
2021/09/18 02:29:46;;;;;;;12.78;8.00;;;;;;;20.64;68.52;99345.34;1692819;83;21174;-61
2021/09/18 02:32:13;;;;;;;10.72;7.35;;;;;;;20.68;68.52;99347.38;1701783;82;21879;-61
2021/09/18 02:34:40;;;;;;;12.15;8.20;;;;;;;20.72;68.40;99341.90;1703511;82;21115;-60
2021/09/18 02:37:06;;;;;;;11.93;7.78;;;;;;;20.76;68.47;99336.94;1673106;83;21057;-60
2021/09/18 02:39:33;;;;;;;11.68;8.20;;;;;;;20.82;68.39;99337.42;1703423;82;21042;-61
2021/09/18 02:42:00;;;;;;;11.18;8.13;;;;;;;20.84;68.22;99339.36;1741664;80;21535;-61
2021/09/18 02:44:26;;;;;;;10.78;8.18;;;;;;;20.83;68.12;99339.57;1728742;81;21824;-61
2021/09/18 02:46:54;;;;;;;9.40;7.40;;;;;;;20.77;68.20;99339.92;1742893;80;21043;-61
2021/09/18 02:49:22;;;;;;;14.83;8.25;;;;;;;20.74;68.37;99340.35;1703461;83;21023;-61
2021/09/18 02:51:49;;;;;;;9.55;7.20;;;;;;;20.77;68.31;99343.41;1692380;83;21031;-60
2021/09/18 02:54:17;;;;;;;9.88;7.12;;;;;;;20.78;68.36;99346.92;1690503;83;21641;-60
2021/09/18 02:56:44;;;;;;;13.10;7.83;;;;;;;20.79;68.42;99348.55;1687440;83;21208;-60
2021/09/18 02:59:11;;;;;;;16.30;8.23;;;;;;;20.78;68.54;99349.07;1690282;83;21035;-60
2021/09/18 03:03:01;;;;;;;11.03;8.55;;;;;;;20.85;68.50;99345.02;1843795;74;23385;-59
2021/09/18 03:05:30;;;;;;;10.25;8.00;;;;;;;20.78;68.54;99347.73;1850103;75;21059;-60
2021/09/18 03:07:57;;;;;;;11.43;7.70;;;;;;;20.77;68.56;99345.27;1833627;77;21172;-59
2021/09/18 03:10:23;;;;;;;9.08;7.12;;;;;;;20.78;68.54;99342.39;1826454;75;21513;-60
2021/09/18 03:12:50;;;;;;;10.75;7.37;;;;;;;20.83;68.52;99339.08;1821757;77;21074;-62
2021/09/18 03:15:18;;;;;;;10.05;6.80;;;;;;;20.87;68.40;99332.25;1847183;75;21139;-60
2021/09/18 03:17:45;;;;;;;10.82;7.90;;;;;;;20.91;68.46;99337.48;1847152;75;21074;-60
2021/09/18 03:20:13;;;;;;;10.28;7.78;;;;;;;20.93;68.39;99331.39;1852372;75;21018;-60
2021/09/18 03:22:41;;;;;;;12.18;7.90;;;;;;;20.91;68.44;99333.47;1852271;75;21022;-59
2021/09/18 03:25:10;;;;;;;11.55;8.48;;;;;;;20.89;68.52;99327.50;1847946;75;21884;-59
2021/09/18 03:27:38;;;;;;;11.38;8.55;;;;;;;20.87;68.57;99324.23;1850993;75;21517;-59
2021/09/18 03:30:06;;;;;;;11.20;7.72;;;;;;;20.89;68.52;99322.67;1851202;75;21049;-59
2021/09/18 03:32:34;;;;;;;11.38;7.78;;;;;;;20.94;68.36;99318.84;1848934;75;21392;-60
2021/09/18 03:35:01;;;;;;;11.00;7.62;;;;;;;20.94;68.32;99313.48;1845710;75;21035;-59
2021/09/18 03:37:27;;;;;;;11.18;8.35;;;;;;;20.95;68.28;99302.58;1841839;75;22010;-60
2021/09/18 03:39:54;;;;;;;11.83;8.35;;;;;;;20.97;68.24;99311.20;1843379;75;21074;-60
2021/09/18 03:42:20;;;;;;;12.55;9.13;;;;;;;20.94;68.27;99311.62;1849852;75;21563;-59
2021/09/18 03:44:48;;;;;;;10.85;9.10;;;;;;;20.91;68.30;99309.41;1854217;75;21589;-60
2021/09/18 03:47:15;;;;;;;10.20;7.55;;;;;;;20.89;68.39;99312.79;1849229;75;21015;-60
2021/09/18 03:49:42;;;;;;;14.15;7.53;;;;;;;20.87;68.42;99318.88;1857983;75;21066;-61
2021/09/18 03:52:08;;;;;;;12.13;8.00;;;;;;;20.90;68.40;99317.64;1848774;75;21104;-59
2021/09/18 03:54:36;;;;;;;12.75;7.37;;;;;;;20.93;68.43;99312.68;1842603;75;21125;-59
2021/09/18 03:57:03;;;;;;;13.18;7.75;;;;;;;20.96;68.39;99306.91;1819149;75;21098;-60
2021/09/18 03:59:31;;;;;;;13.55;9.20;;;;;;;20.97;68.34;99305.03;1815917;77;21088;-59
2021/09/18 04:01:57;;;;;;;11.45;8.40;;;;;;;20.95;68.42;99305.25;1834971;75;21781;-59
2021/09/18 04:04:23;;;;;;;11.90;8.33;;;;;;;20.93;68.46;99296.63;1817420;77;20965;-59
2021/09/18 04:06:52;;;;;;;12.18;9.35;;;;;;;20.89;68.51;99295.94;1820477;77;20930;-61
2021/09/18 04:09:18;;;;;;;12.88;8.28;;;;;;;20.90;68.51;99300.27;1785050;77;22190;-60
2021/09/18 04:11:45;;;;;;;10.82;8.30;;;;;;;20.93;68.48;99293.96;1784697;78;20996;-61
2021/09/18 04:14:11;;;;;;;11.78;8.45;;;;;;;20.97;68.56;99288.99;1821500;78;21048;-62
2021/09/18 04:16:39;;;;;;;11.65;8.50;;;;;;;21.05;68.42;99299.42;1818224;77;21481;-63
2021/09/18 04:19:06;;;;;;;13.22;9.45;;;;;;;21.09;68.23;99294.45;1809342;77;21436;-63
2021/09/18 04:21:32;;;;;;;10.15;8.50;;;;;;;21.11;68.15;99291.84;1819508;77;21141;-62
2021/09/18 04:24:01;;;;;;;13.30;9.70;;;;;;;21.10;68.08;99288.08;1810593;77;22189;-64
2021/09/18 04:26:28;;;;;;;12.15;8.68;;;;;;;21.08;68.13;99295.48;1815191;77;21019;-65
2021/09/18 04:28:58;;;;;;;10.80;8.65;;;;;;;21.10;68.00;99290.75;1814242;77;20963;-64
2021/09/18 04:31:25;;;;;;;12.23;9.78;;;;;;;21.12;67.80;99290.01;1815476;77;21004;-64
2021/09/18 04:33:52;;;;;;;14.35;8.63;;;;;;;21.14;67.89;99295.42;1792132;77;21244;-63
2021/09/18 04:36:18;;;;;;;14.03;9.95;;;;;;;21.16;67.83;99287.19;1813571;77;21853;-62
2021/09/18 04:38:45;;;;;;;16.48;11.78;;;;;;;21.15;67.88;99285.56;1815224;77;20968;-64
2021/09/18 04:41:11;;;;;;;17.73;14.85;;;;;;;21.12;67.83;99289.48;1816513;76;21059;-62
2021/09/18 04:43:38;;;;;;;14.30;10.23;;;;;;;21.10;68.00;99290.23;1815100;77;21579;-62
2021/09/18 04:46:06;;;;;;;11.50;9.28;;;;;;;21.13;68.07;99290.29;1810076;77;21035;-63
2021/09/18 04:48:32;;;;;;;13.93;9.03;;;;;;;21.17;67.91;99296.86;1816751;77;21058;-63
2021/09/18 04:50:59;;;;;;;12.15;9.43;;;;;;;21.18;67.91;99287.78;1810117;77;21011;-63
2021/09/18 04:53:26;;;;;;;19.17;9.98;;;;;;;21.23;67.92;99290.64;1792071;77;21012;-62
2021/09/18 04:55:55;;;;;;;14.60;9.78;;;;;;;21.28;67.94;99287.28;1813863;77;20999;-61
2021/09/18 04:58:21;;;;;;;13.50;8.90;;;;;;;21.32;67.81;99288.50;1815842;77;21093;-60
2021/09/18 05:00:48;;;;;;;16.25;9.73;;;;;;;21.38;67.65;99292.14;1807889;77;21044;-60
2021/09/18 05:03:14;;;;;;;10.95;8.30;;;;;;;21.41;67.48;99287.70;1845113;76;21022;-60
2021/09/18 05:05:40;;;;;;;10.93;8.08;;;;;;;21.46;67.33;99279.82;1854906;76;21778;-63
2021/09/18 05:08:09;;;;;;;13.45;8.88;;;;;;;21.51;67.14;99283.48;1849632;75;21018;-64
2021/09/18 05:10:38;;;;;;;11.57;9.23;;;;;;;21.54;67.01;99284.92;1849589;76;22175;-62
2021/09/18 05:13:06;;;;;;;12.00;9.50;;;;;;;21.54;66.88;99284.92;1843253;75;21061;-63
2021/09/18 05:15:33;;;;;;;14.40;10.08;;;;;;;21.49;66.99;99282.09;1854567;75;20957;-60
2021/09/18 05:18:01;;;;;;;14.90;10.40;;;;;;;21.43;66.95;99285.61;1851066;75;21074;-61
2021/09/18 05:20:30;;;;;;;12.53;8.63;;;;;;;21.37;67.15;99282.47;1857361;75;21414;-61
2021/09/18 05:22:57;;;;;;;13.50;10.00;;;;;;;21.34;67.19;99287.23;1842146;75;22437;-63
2021/09/18 05:25:24;;;;;;;15.10;9.03;;;;;;;21.34;67.23;99281.88;1845044;75;21121;-62
2021/09/18 05:27:52;;;;;;;12.95;9.40;;;;;;;21.33;67.21;99287.45;1846244;75;20936;-61
2021/09/18 05:30:19;;;;;;;15.23;10.00;;;;;;;21.31;67.28;99281.50;1849749;75;21027;-61
2021/09/18 05:32:46;;;;;;;14.10;10.45;;;;;;;21.28;67.46;99278.77;1856400;75;20964;-59
2021/09/18 05:35:12;;;;;;;15.38;10.03;;;;;;;21.25;67.35;99280.53;1851359;75;21851;-60
2021/09/18 05:37:39;;;;;;;11.55;9.13;;;;;;;21.23;67.51;99284.45;1846507;75;21023;-60
2021/09/18 05:40:08;;;;;;;12.65;8.55;;;;;;;21.22;67.42;99282.83;1837512;75;21038;-58
2021/09/18 05:42:36;;;;;;;11.65;7.70;;;;;;;21.27;67.41;99281.12;1851173;75;20904;-59
2021/09/18 05:45:06;;;;;;;13.75;9.80;;;;;;;21.31;67.33;99282.31;1825884;77;21063;-60
2021/09/18 05:47:33;;;;;;;14.35;9.70;;;;;;;21.32;67.27;99283.96;1845482;75;21102;-60
2021/09/18 05:50:00;;;;;;;16.57;10.55;;;;;;;21.28;67.02;99279.27;1850095;75;21037;-61
2021/09/18 05:52:27;;;;;;;14.45;9.88;;;;;;;21.19;67.04;99282.73;1856857;76;20944;-61
2021/09/18 05:54:54;;;;;;;14.13;9.63;;;;;;;21.09;67.29;99275.20;1848452;76;21299;-61
2021/09/18 05:57:21;;;;;;;16.95;10.00;;;;;;;21.08;67.52;99284.28;1854660;75;21027;-61
2021/09/18 05:59:47;;;;;;;15.23;10.53;;;;;;;21.14;67.40;99290.60;1848517;75;21755;-59
2021/09/18 06:02:13;;;;;;;13.70;10.05;;;;;;;21.21;67.11;99283.86;1850824;75;21006;-59
2021/09/18 06:04:40;;;;;;;24.43;10.65;;;;;;;21.18;67.11;99283.77;1825296;77;21521;-60
2021/09/18 06:07:06;;;;;;;18.27;10.82;;;;;;;21.15;67.31;99282.36;1857313;75;21086;-59
2021/09/18 06:09:33;;;;;;;18.15;10.98;;;;;;;21.15;67.23;99285.56;1820588;76;21567;-59
2021/09/18 06:11:59;;;;;;;15.65;10.78;;;;;;;21.13;67.07;99289.80;1846643;75;21139;-58
2021/09/18 06:14:26;;;;;;;13.28;9.43;;;;;;;21.14;66.96;99292.75;1847037;75;22209;-58
2021/09/18 06:16:53;;;;;;;15.55;10.18;;;;;;;21.18;66.64;99298.48;1810463;76;21047;-59
2021/09/18 06:19:19;;;;;;;18.50;11.50;;;;;;;21.17;66.74;99292.84;1857634;76;20984;-59
2021/09/18 06:21:46;;;;;;;14.47;11.12;;;;;;;21.18;66.59;99286.44;1848185;75;20963;-59
2021/09/18 06:24:14;;;;;;;17.32;11.80;;;;;;;21.15;66.43;99288.23;1848346;75;20970;-60
2021/09/18 06:26:42;;;;;;;14.58;10.55;;;;;;;21.08;66.65;99294.98;1851635;75;21078;-59
2021/09/18 06:29:09;;;;;;;14.70;11.30;;;;;;;20.97;66.73;99289.80;1851729;75;21410;-59
2021/09/18 06:31:37;;;;;;;16.00;10.10;;;;;;;20.96;66.84;99296.20;1845859;75;21089;-58
2021/09/18 06:34:03;;;;;;;15.72;10.93;;;;;;;21.05;67.09;99295.94;1845080;75;21374;-58
2021/09/18 06:36:30;;;;;;;13.83;10.40;;;;;;;21.11;66.55;99302.55;1849589;75;21128;-59
2021/09/18 06:38:57;;;;;;;13.40;10.85;;;;;;;21.14;66.25;99301.30;1821535;76;21134;-59
2021/09/18 06:41:23;;;;;;;16.73;11.50;;;;;;;21.12;66.23;99303.38;1828082;77;21261;-59
2021/09/18 06:43:50;;;;;;;12.78;10.20;;;;;;;21.13;66.16;99303.66;1816443;75;21027;-59
2021/09/18 06:46:16;;;;;;;13.08;9.15;;;;;;;21.14;66.21;99299.44;1849607;75;21611;-60
2021/09/18 06:48:44;;;;;;;14.58;9.13;;;;;;;21.17;66.04;99298.20;1849582;75;21020;-60
2021/09/18 06:51:11;;;;;;;12.53;9.00;;;;;;;21.21;65.61;99307.41;1819967;75;21062;-60
2021/09/18 06:53:39;;;;;;;14.03;8.95;;;;;;;21.23;65.26;99301.34;1845769;75;21098;-59
2021/09/18 06:56:05;;;;;;;15.70;9.20;;;;;;;21.19;65.45;99302.80;1846801;75;21032;-59
2021/09/18 06:58:32;;;;;;;14.23;10.58;;;;;;;21.18;65.67;99297.14;1843315;75;21165;-60
2021/09/18 07:00:58;;;;;;;13.43;9.85;;;;;;;21.16;65.55;99291.20;1843373;75;22345;-59
2021/09/18 07:03:25;;;;;;;14.28;9.08;;;;;;;21.14;65.20;99297.29;1818546;75;21083;-59
2021/09/18 07:05:52;;;;;;;13.03;7.92;;;;;;;21.17;65.10;99292.84;1807180;77;21084;-59
2021/09/18 07:08:18;;;;;;;13.95;8.63;;;;;;;21.24;64.84;99290.92;1806462;77;21075;-59
2021/09/18 07:10:44;;;;;;;13.28;8.80;;;;;;;21.35;64.74;99285.39;1806183;77;21057;-59
2021/09/18 07:13:12;;;;;;;13.70;8.53;;;;;;;21.38;64.10;99288.12;1779559;77;21119;-59
2021/09/18 07:15:38;;;;;;;11.65;7.60;;;;;;;21.42;64.12;99286.67;1807307;78;21004;-58
2021/09/18 07:18:05;;;;;;;11.28;8.80;;;;;;;21.45;64.02;99292.39;1801019;78;21113;-59
2021/09/18 07:20:32;;;;;;;12.18;8.88;;;;;;;21.49;63.98;99282.91;1710221;82;21064;-59
2021/09/18 07:22:59;;;;;;;12.73;8.93;;;;;;;21.51;63.67;99278.14;1713485;82;21059;-58
2021/09/18 07:25:26;;;;;;;14.90;9.03;;;;;;;21.49;63.38;99278.08;1726047;81;21751;-58
2021/09/18 07:27:53;;;;;;;13.78;8.65;;;;;;;21.50;63.56;99287.23;1753823;79;21158;-60
2021/09/18 07:30:21;;;;;;;14.50;8.90;;;;;;;21.55;63.25;99271.81;1720777;81;21494;-59
2021/09/18 07:32:47;;;;;;;11.73;8.40;;;;;;;21.58;62.94;99285.30;1755881;80;21097;-58
2021/09/18 07:35:13;;;;;;;15.88;9.43;;;;;;;21.55;63.01;99281.72;1756635;81;21045;-59
2021/09/18 07:37:40;;;;;;;13.55;9.03;;;;;;;21.54;63.02;99281.44;1729209;81;21166;-59
2021/09/18 07:40:10;;;;;;;12.93;8.23;;;;;;;21.46;62.82;99280.63;1758548;80;21030;-60
2021/09/18 07:42:36;;;;;;;12.68;9.08;;;;;;;21.38;62.88;99282.25;1734639;81;21109;-58
2021/09/18 07:45:05;;;;;;;12.13;9.30;;;;;;;21.31;63.08;99282.31;1742229;81;21033;-59
2021/09/18 07:47:31;;;;;;;15.90;9.15;;;;;;;21.25;63.15;99279.20;1749368;80;21085;-61
2021/09/18 07:49:58;;;;;;;13.70;8.23;;;;;;;21.23;63.42;99289.80;1752272;80;21160;-61
2021/09/18 07:52:24;;;;;;;12.25;8.00;;;;;;;21.24;62.97;99288.25;1739704;81;21042;-57
2021/09/18 07:54:52;;;;;;;11.63;7.72;;;;;;;21.21;62.58;99287.34;1760523;81;21056;-58
2021/09/18 07:57:19;;;;;;;11.50;7.80;;;;;;;21.15;62.73;99291.73;1754804;80;21200;-59
2021/09/18 07:59:45;;;;;;;13.68;7.28;;;;;;;21.08;62.72;99288.79;1754137;79;21602;-59
2021/09/18 08:02:12;;;;;;;10.38;7.92;;;;;;;21.00;62.86;99290.39;1753357;79;21804;-58
2021/09/18 08:04:38;;;;;;;10.38;6.90;;;;;;;20.93;63.18;99302.48;1743303;80;21058;-60
2021/09/18 08:07:04;;;;;;;13.08;7.08;;;;;;;20.89;63.22;99296.75;1769469;79;20967;-61
2021/09/18 08:09:31;;;;;;;8.45;6.20;;;;;;;20.89;63.28;99310.12;1770328;80;22518;-57
2021/09/18 08:11:58;;;;;;;9.83;6.08;;;;;;;20.91;62.69;99304.06;1770216;79;21093;-58
2021/09/18 08:14:25;;;;;;;8.50;6.00;;;;;;;20.87;62.71;99309.52;1768769;79;22703;-57
2021/09/18 08:16:53;;;;;;;7.80;5.15;;;;;;;20.84;62.54;99301.93;1770286;80;21098;-61
2021/09/18 08:19:19;;;;;;;8.00;5.00;;;;;;;20.83;62.17;99305.66;1767243;79;21108;-55
2021/09/18 08:21:49;;;;;;;8.53;5.92;;;;;;;20.80;62.14;99315.44;1762962;80;21069;-58
2021/09/18 08:24:17;;;;;;;9.23;4.53;;;;;;;20.76;62.10;99310.20;1767078;79;21061;-63
2021/09/18 08:26:43;;;;;;;7.10;4.58;;;;;;;20.74;61.80;99317.63;1771259;79;21126;-59
2021/09/18 08:29:10;;;;;;;6.25;4.22;;;;;;;20.71;61.74;99318.89;1740200;80;21040;-60
2021/09/18 08:31:36;;;;;;;8.60;4.40;;;;;;;20.72;61.64;99321.04;1767184;79;21563;-59
2021/09/18 08:34:03;;;;;;;7.22;4.85;;;;;;;20.76;61.51;99327.09;1773018;80;21041;-59
2021/09/18 08:36:29;;;;;;;8.43;4.40;;;;;;;20.80;61.45;99322.66;1770487;80;21065;-60
2021/09/18 08:38:56;;;;;;;8.33;4.40;;;;;;;20.82;61.80;99317.38;1767902;80;21137;-60
2021/09/18 08:41:23;;;;;;;7.87;4.60;;;;;;;20.87;60.87;99321.55;1768616;79;21038;-59
2021/09/18 08:43:49;;;;;;;6.70;3.98;;;;;;;20.92;60.99;99324.92;1768211;80;21121;-59
2021/09/18 08:46:18;;;;;;;6.42;3.30;;;;;;;21.01;60.83;99321.46;1769453;80;21518;-59
2021/09/18 08:48:45;;;;;;;5.62;3.20;;;;;;;21.14;60.87;99320.02;1765303;79;21396;-59
2021/09/18 08:51:13;;;;;;;6.78;4.20;;;;;;;21.29;60.21;99323.19;1766500;79;21122;-59
2021/09/18 08:53:41;;;;;;;7.15;3.35;;;;;;;21.38;59.87;99325.59;1766799;80;21488;-60
2021/09/18 08:56:07;;;;;;;5.80;3.02;;;;;;;21.40;59.13;99320.83;1760525;80;21053;-59
2021/09/18 08:58:33;;;;;;;4.30;2.47;;;;;;;21.35;58.98;99318.84;1771396;80;21034;-60
2021/09/18 09:01:00;;;;;;;4.53;2.15;;;;;;;21.31;58.84;99330.47;1769266;79;21593;-59
2021/09/18 09:03:31;;;;;;;5.12;2.12;;;;;;;21.32;58.55;99334.80;1775943;78;22889;-59
2021/09/18 09:06:13;;;;;;;3.92;1.95;;;;;;;21.28;58.56;99336.28;1761771;79;21882;-59
2021/09/18 09:08:43;;;;;;;4.83;2.22;;;;;;;21.19;58.84;99337.58;1772757;79;21063;-59
2021/09/18 09:11:15;;;;;;;4.75;2.30;;;;;;;21.09;59.13;99337.25;1755342;80;21076;-60
2021/09/18 09:14:01;;;;;;;4.47;2.22;;;;;;;21.00;59.47;99335.86;1750507;80;21093;-60
2021/09/18 09:16:33;;;;;;;3.77;1.75;;;;;;;20.92;59.63;99344.45;1756192;80;21166;-59
2021/09/18 09:19:02;;;;;;;6.03;2.50;;;;;;;20.80;60.16;99343.52;1733863;81;21096;-60
2021/09/18 09:21:30;;;;;;;3.83;1.82;;;;;;;20.69;60.38;99340.17;1750657;80;21061;-59
2021/09/18 09:24:14;;;;;;;4.83;1.70;;;;;;;20.58;60.72;99338.45;1755711;80;21024;-59
2021/09/18 09:26:45;;;;;;;5.03;1.57;;;;;;;20.51;61.08;99337.68;1693939;82;21065;-59
2021/09/18 09:29:11;;;;;;;3.90;1.70;;;;;;;20.52;61.38;99344.64;1773660;79;21213;-59
2021/09/18 09:31:40;;;;;;;4.10;1.92;;;;;;;20.52;61.34;99349.18;1714291;82;21045;-59
2021/09/18 09:34:15;;;;;;;4.10;1.50;;;;;;;20.46;61.88;99349.52;1754887;81;21053;-59
2021/09/18 09:36:47;;;;;;;4.40;1.85;;;;;;;20.45;61.98;99349.20;1758993;79;21040;-59
2021/09/18 09:39:17;;;;;;;4.97;1.42;;;;;;;20.40;62.23;99356.52;1774613;80;21012;-59
2021/09/18 09:41:56;;;;;;;4.35;1.77;;;;;;;20.32;63.06;99361.28;1781821;80;21139;-60
2021/09/18 09:44:28;;;;;;;7.28;1.52;;;;;;;20.23;63.50;99361.52;1777736;80;21079;-59
2021/09/18 09:47:04;;;;;;;4.25;1.30;;;;;;;20.18;63.72;99377.88;1738154;81;21079;-58
2021/09/18 09:49:53;;;;;;;3.02;1.20;;;;;;;20.12;63.54;99382.19;1768744;80;21046;-60
2021/09/18 09:52:31;;;;;;;4.22;1.40;;;;;;;19.98;63.86;99380.08;1738951;79;21041;-58
2021/09/18 09:55:10;;;;;;;3.30;1.00;;;;;;;19.88;64.12;99387.70;1773740;78;23795;-58
2021/09/18 09:57:40;;;;;;;4.97;1.12;;;;;;;19.83;63.81;99390.98;1775325;80;21464;-58
2021/09/18 10:00:10;;;;;;;3.65;1.22;;;;;;;19.72;63.78;99391.60;1778259;78;21013;-61
2021/09/18 10:02:37;;;;;;;3.15;1.20;;;;;;;19.62;64.21;99383.20;1744390;81;21061;-61
2021/09/18 10:05:07;;;;;;;3.62;1.27;;;;;;;19.61;64.38;99389.02;1759409;80;21045;-60
2021/09/18 10:07:36;;;;;;;3.37;1.20;;;;;;;19.67;64.32;99384.20;1783650;79;21024;-60
2021/09/18 10:10:05;;;;;;;6.42;1.10;;;;;;;19.79;63.82;99392.96;1794614;78;21077;-60
2021/09/18 10:12:33;;;;;;;3.52;1.00;;;;;;;19.85;63.24;99392.95;1793910;78;21053;-60
2021/09/18 10:15:03;;;;;;;3.25;1.40;;;;;;;19.82;62.51;99393.36;1758669;79;21580;-60
2021/09/18 10:17:38;;;;;;;5.00;1.22;;;;;;;19.72;62.08;99407.61;1787565;78;21562;-61
2021/09/18 10:20:12;;;;;;;6.47;1.37;;;;;;;19.61;62.29;99394.36;1789043;78;21044;-61
2021/09/18 10:25:33;;;;;;;3.15;1.20;;;;;;;19.61;62.36;99402.89;1786538;78;20954;-61
2021/09/18 10:28:09;;;;;;;5.25;1.40;;;;;;;19.58;61.62;99403.30;1796252;78;21007;-60
2021/09/18 10:30:41;;;;;;;2.62;0.95;;;;;;;19.51;61.96;99387.81;1797606;78;20985;-60
2021/09/18 10:33:28;;;;;;;4.03;1.37;;;;;;;19.56;61.99;99388.02;1776774;78;21157;-60
2021/09/18 10:36:05;;;;;;;3.12;0.90;;;;;;;19.67;61.55;99400.74;1810846;77;21052;-60
2021/09/18 10:38:35;;;;;;;2.62;1.12;;;;;;;19.70;61.12;99397.64;1816226;77;21074;-60
2021/09/18 10:41:08;;;;;;;2.67;1.07;;;;;;;19.65;61.13;99396.09;1788935;78;21015;-61
2021/09/18 10:43:44;;;;;;;2.42;0.82;;;;;;;19.56;61.19;99399.50;1756720;80;21019;-61
2021/09/18 10:46:32;;;;;;;3.77;1.17;;;;;;;19.48;61.33;99410.38;1785935;78;21157;-60
2021/09/18 10:48:59;;;;;;;3.30;1.75;;;;;;;19.39;61.44;99411.09;1743367;80;21037;-60
2021/09/18 10:51:36;;;;;;;3.20;1.32;;;;;;;19.41;60.79;99429.04;1779344;79;21047;-60
2021/09/18 10:54:16;;;;;;;5.10;1.37;;;;;;;19.42;60.42;99408.54;1791891;78;21053;-60
2021/09/18 10:57:04;;;;;;;3.27;1.30;;;;;;;19.42;59.91;99416.55;1787816;78;21020;-60
2021/09/18 10:59:50;;;;;;;3.25;1.30;;;;;;;19.39;59.71;99415.61;1791535;78;21105;-61
2021/09/18 11:02:36;;;;;;;2.72;1.10;;;;;;;19.39;59.83;99416.42;1809468;77;21031;-61
2021/09/18 11:05:24;;;;;;;3.55;1.22;;;;;;;19.39;59.64;99422.28;1789062;78;21053;-61
2021/09/18 11:07:59;;;;;;;4.30;1.30;;;;;;;19.38;59.68;99420.10;1761236;79;21585;-60
2021/09/18 11:10:33;;;;;;;3.45;1.22;;;;;;;19.41;59.36;99421.03;1791404;78;21582;-60
2021/09/18 11:13:12;;;;;;;8.35;1.82;;;;;;;19.43;59.59;99431.02;1793618;78;21355;-60
2021/09/18 11:15:52;;;;;;;3.83;1.37;;;;;;;19.49;59.48;99435.52;1793111;78;21088;-62
2021/09/18 11:18:38;;;;;;;2.77;1.25;;;;;;;19.51;58.88;99434.50;1791914;78;21541;-61
2021/09/18 11:21:12;;;;;;;5.23;1.27;;;;;;;19.44;58.86;99434.49;1780430;78;21059;-61
2021/09/18 11:23:58;;;;;;;3.67;1.60;;;;;;;19.43;58.66;99435.02;1808884;77;21043;-61
2021/09/18 11:26:38;;;;;;;3.60;1.13;;;;;;;19.42;58.68;99431.22;1784202;77;21802;-61
2021/09/18 11:29:20;;;;;;;2.58;1.00;;;;;;;19.47;58.76;99430.90;1779204;78;20982;-60
2021/09/18 11:32:05;;;;;;;2.72;0.85;;;;;;;19.54;58.54;99438.09;1781543;78;21077;-61
2021/09/18 11:34:39;;;;;;;2.10;0.75;;;;;;;19.49;57.78;99431.52;1783278;78;21112;-60
2021/09/18 11:37:13;;;;;;;2.58;0.70;;;;;;;19.34;57.32;99448.22;1809940;77;21535;-59
2021/09/18 11:39:47;;;;;;;3.22;1.35;;;;;;;19.17;57.40;99447.78;1795901;78;21252;-60